sensor_id;sensor_type;location;lat;lon;timestamp;P1;durP1;ratioP1;P2;durP2;ratioP2
20069;SDS011;10195;50.868;4.382;2023-01-10T00:02:18;15.87;;;3.23;;
20069;SDS011;10195;50.868;4.382;2023-01-10T00:04:44;16.80;;;3.73;;
20069;SDS011;10195;50.868;4.382;2023-01-10T00:07:10;18.03;;;4.00;;
20069;SDS011;10195;50.868;4.382;2023-01-10T00:09:35;13.23;;;3.57;;
20069;SDS011;10195;50.868;4.382;2023-01-10T00:12:01;17.87;;;4.40;;
20069;SDS011;10195;50.868;4.382;2023-01-10T00:14:45;17.13;;;4.40;;
20069;SDS011;10195;50.868;4.382;2023-01-10T00:17:11;11.83;;;2.90;;
20069;SDS011;10195;50.868;4.382;2023-01-10T00:19:36;15.10;;;4.10;;
20069;SDS011;10195;50.868;4.382;2023-01-10T00:22:02;17.20;;;4.33;;
20069;SDS011;10195;50.868;4.382;2023-01-10T00:24:29;19.23;;;4.50;;
20069;SDS011;10195;50.868;4.382;2023-01-10T00:26:55;13.97;;;3.37;;
20069;SDS011;10195;50.868;4.382;2023-01-10T00:29:28;14.53;;;4.00;;
20069;SDS011;10195;50.868;4.382;2023-01-10T00:31:59;20.53;;;4.17;;
20069;SDS011;10195;50.868;4.382;2023-01-10T00:34:24;19.93;;;4.20;;
20069;SDS011;10195;50.868;4.382;2023-01-10T00:36:51;16.93;;;4.13;;
20069;SDS011;10195;50.868;4.382;2023-01-10T00:39:17;15.50;;;3.57;;
20069;SDS011;10195;50.868;4.382;2023-01-10T00:41:44;19.03;;;3.87;;
20069;SDS011;10195;50.868;4.382;2023-01-10T00:44:29;19.10;;;4.00;;
20069;SDS011;10195;50.868;4.382;2023-01-10T00:46:54;25.33;;;3.97;;
20069;SDS011;10195;50.868;4.382;2023-01-10T00:49:20;12.50;;;3.40;;
20069;SDS011;10195;50.868;4.382;2023-01-10T00:51:46;18.10;;;2.93;;
20069;SDS011;10195;50.868;4.382;2023-01-10T00:54:12;17.47;;;4.10;;
20069;SDS011;10195;50.868;4.382;2023-01-10T00:56:39;18.53;;;3.80;;
20069;SDS011;10195;50.868;4.382;2023-01-10T00:59:04;22.87;;;4.30;;
20069;SDS011;10195;50.868;4.382;2023-01-10T01:01:30;12.97;;;3.20;;
20069;SDS011;10195;50.868;4.382;2023-01-10T01:03:57;14.50;;;3.37;;
20069;SDS011;10195;50.868;4.382;2023-01-10T01:06:25;20.20;;;3.73;;
20069;SDS011;10195;50.868;4.382;2023-01-10T01:08:52;15.47;;;3.27;;
20069;SDS011;10195;50.868;4.382;2023-01-10T01:11:17;16.30;;;3.53;;
20069;SDS011;10195;50.868;4.382;2023-01-10T01:13:43;15.00;;;3.20;;
20069;SDS011;10195;50.868;4.382;2023-01-10T01:16:09;19.33;;;4.03;;
20069;SDS011;10195;50.868;4.382;2023-01-10T01:18:34;19.83;;;3.37;;
20069;SDS011;10195;50.868;4.382;2023-01-10T01:21:00;18.33;;;4.00;;
20069;SDS011;10195;50.868;4.382;2023-01-10T01:23:27;18.43;;;3.80;;
20069;SDS011;10195;50.868;4.382;2023-01-10T01:25:54;18.03;;;3.70;;
20069;SDS011;10195;50.868;4.382;2023-01-10T01:28:21;30.13;;;4.03;;
20069;SDS011;10195;50.868;4.382;2023-01-10T01:30:47;20.70;;;3.80;;
20069;SDS011;10195;50.868;4.382;2023-01-10T01:33:13;21.30;;;3.70;;
20069;SDS011;10195;50.868;4.382;2023-01-10T01:35:42;26.40;;;3.87;;
20069;SDS011;10195;50.868;4.382;2023-01-10T01:38:09;14.47;;;2.77;;
20069;SDS011;10195;50.868;4.382;2023-01-10T01:40:35;25.73;;;3.53;;
20069;SDS011;10195;50.868;4.382;2023-01-10T01:43:03;21.13;;;4.07;;
20069;SDS011;10195;50.868;4.382;2023-01-10T01:45:38;17.17;;;4.10;;
20069;SDS011;10195;50.868;4.382;2023-01-10T01:48:25;18.00;;;3.43;;
20069;SDS011;10195;50.868;4.382;2023-01-10T01:53:36;27.77;;;4.13;;
20069;SDS011;10195;50.868;4.382;2023-01-10T01:56:14;17.47;;;3.00;;
20069;SDS011;10195;50.868;4.382;2023-01-10T01:58:55;17.17;;;3.97;;
20069;SDS011;10195;50.868;4.382;2023-01-10T02:01:25;14.27;;;2.90;;
20069;SDS011;10195;50.868;4.382;2023-01-10T02:03:53;17.63;;;3.07;;
20069;SDS011;10195;50.868;4.382;2023-01-10T02:06:23;34.30;;;4.57;;
20069;SDS011;10195;50.868;4.382;2023-01-10T02:08:54;20.87;;;3.20;;
20069;SDS011;10195;50.868;4.382;2023-01-10T02:11:25;21.33;;;3.47;;
20069;SDS011;10195;50.868;4.382;2023-01-10T02:13:53;23.37;;;4.43;;
20069;SDS011;10195;50.868;4.382;2023-01-10T02:16:19;18.37;;;3.73;;
20069;SDS011;10195;50.868;4.382;2023-01-10T02:18:44;23.27;;;4.03;;
20069;SDS011;10195;50.868;4.382;2023-01-10T02:35:27;17.97;;;3.73;;
20069;SDS011;10195;50.868;4.382;2023-01-10T02:38:20;15.13;;;3.33;;
20069;SDS011;10195;50.868;4.382;2023-01-10T02:43:34;21.83;;;3.13;;
20069;SDS011;10195;50.868;4.382;2023-01-10T02:46:39;18.67;;;3.73;;
20069;SDS011;10195;50.868;4.382;2023-01-10T02:48:59;17.93;;;3.50;;
20069;SDS011;10195;50.868;4.382;2023-01-10T02:51:27;22.00;;;3.50;;
20069;SDS011;10195;50.868;4.382;2023-01-10T02:54:05;23.57;;;4.07;;
20069;SDS011;10195;50.868;4.382;2023-01-10T03:10:07;29.27;;;4.17;;
20069;SDS011;10195;50.868;4.382;2023-01-10T03:15:19;19.13;;;3.43;;
20069;SDS011;10195;50.868;4.382;2023-01-10T03:17:48;20.40;;;4.00;;
20069;SDS011;10195;50.868;4.382;2023-01-10T03:20:18;24.00;;;3.83;;
20069;SDS011;10195;50.868;4.382;2023-01-10T03:22:46;23.57;;;4.03;;
20069;SDS011;10195;50.868;4.382;2023-01-10T03:25:13;20.30;;;3.67;;
20069;SDS011;10195;50.868;4.382;2023-01-10T03:27:51;27.63;;;5.30;;
20069;SDS011;10195;50.868;4.382;2023-01-10T03:30:34;26.50;;;3.97;;
20069;SDS011;10195;50.868;4.382;2023-01-10T03:33:06;22.50;;;3.83;;
20069;SDS011;10195;50.868;4.382;2023-01-10T03:38:20;24.90;;;4.03;;
20069;SDS011;10195;50.868;4.382;2023-01-10T03:41:02;23.23;;;4.13;;
20069;SDS011;10195;50.868;4.382;2023-01-10T03:43:48;18.40;;;3.30;;
20069;SDS011;10195;50.868;4.382;2023-01-10T03:46:43;21.63;;;3.93;;
20069;SDS011;10195;50.868;4.382;2023-01-10T03:49:32;17.50;;;2.93;;
20069;SDS011;10195;50.868;4.382;2023-01-10T03:52:01;15.10;;;3.50;;
20069;SDS011;10195;50.868;4.382;2023-01-10T03:54:29;17.40;;;3.20;;
20069;SDS011;10195;50.868;4.382;2023-01-10T03:56:54;22.83;;;4.20;;
20069;SDS011;10195;50.868;4.382;2023-01-10T03:59:21;27.67;;;4.13;;
20069;SDS011;10195;50.868;4.382;2023-01-10T04:01:50;20.83;;;3.40;;
20069;SDS011;10195;50.868;4.382;2023-01-10T04:04:16;20.30;;;3.83;;
20069;SDS011;10195;50.868;4.382;2023-01-10T04:06:42;20.03;;;3.53;;
20069;SDS011;10195;50.868;4.382;2023-01-10T04:09:08;21.00;;;3.87;;
20069;SDS011;10195;50.868;4.382;2023-01-10T04:11:34;32.47;;;4.10;;
20069;SDS011;10195;50.868;4.382;2023-01-10T04:14:00;26.37;;;3.57;;
20069;SDS011;10195;50.868;4.382;2023-01-10T04:16:25;20.60;;;4.30;;
20069;SDS011;10195;50.868;4.382;2023-01-10T04:18:51;14.93;;;3.27;;
20069;SDS011;10195;50.868;4.382;2023-01-10T04:21:17;23.50;;;4.60;;
20069;SDS011;10195;50.868;4.382;2023-01-10T04:23:42;21.17;;;4.20;;
20069;SDS011;10195;50.868;4.382;2023-01-10T04:26:08;35.43;;;6.33;;
20069;SDS011;10195;50.868;4.382;2023-01-10T04:28:34;27.67;;;3.93;;
20069;SDS011;10195;50.868;4.382;2023-01-10T04:30:59;29.03;;;3.63;;
20069;SDS011;10195;50.868;4.382;2023-01-10T04:33:25;28.87;;;4.57;;
20069;SDS011;10195;50.868;4.382;2023-01-10T04:35:52;26.63;;;4.47;;
20069;SDS011;10195;50.868;4.382;2023-01-10T04:38:18;24.40;;;4.53;;
20069;SDS011;10195;50.868;4.382;2023-01-10T04:40:43;24.93;;;4.03;;
20069;SDS011;10195;50.868;4.382;2023-01-10T04:43:15;30.77;;;4.17;;
20069;SDS011;10195;50.868;4.382;2023-01-10T04:45:41;20.10;;;4.07;;
20069;SDS011;10195;50.868;4.382;2023-01-10T04:48:07;33.70;;;4.27;;
20069;SDS011;10195;50.868;4.382;2023-01-10T04:50:33;18.37;;;3.57;;
20069;SDS011;10195;50.868;4.382;2023-01-10T04:52:58;35.80;;;4.37;;
20069;SDS011;10195;50.868;4.382;2023-01-10T04:55:24;27.23;;;4.47;;
20069;SDS011;10195;50.868;4.382;2023-01-10T04:57:50;28.63;;;4.87;;
20069;SDS011;10195;50.868;4.382;2023-01-10T05:00:16;23.70;;;3.70;;
20069;SDS011;10195;50.868;4.382;2023-01-10T05:02:41;22.10;;;3.97;;
20069;SDS011;10195;50.868;4.382;2023-01-10T05:05:11;28.67;;;5.77;;
20069;SDS011;10195;50.868;4.382;2023-01-10T05:07:38;29.87;;;4.03;;
20069;SDS011;10195;50.868;4.382;2023-01-10T05:10:04;33.23;;;4.53;;
20069;SDS011;10195;50.868;4.382;2023-01-10T05:12:31;24.10;;;4.23;;
20069;SDS011;10195;50.868;4.382;2023-01-10T05:14:57;39.20;;;4.50;;
20069;SDS011;10195;50.868;4.382;2023-01-10T05:17:22;36.97;;;3.93;;
20069;SDS011;10195;50.868;4.382;2023-01-10T05:19:48;27.13;;;4.13;;
20069;SDS011;10195;50.868;4.382;2023-01-10T05:22:14;28.47;;;3.73;;
20069;SDS011;10195;50.868;4.382;2023-01-10T05:24:39;22.60;;;3.50;;
20069;SDS011;10195;50.868;4.382;2023-01-10T05:27:05;24.03;;;3.87;;
20069;SDS011;10195;50.868;4.382;2023-01-10T05:29:31;18.90;;;2.57;;
20069;SDS011;10195;50.868;4.382;2023-01-10T05:31:58;25.97;;;4.20;;
20069;SDS011;10195;50.868;4.382;2023-01-10T05:34:24;21.53;;;3.73;;
20069;SDS011;10195;50.868;4.382;2023-01-10T05:36:49;32.37;;;4.13;;
20069;SDS011;10195;50.868;4.382;2023-01-10T05:39:15;34.00;;;4.83;;
20069;SDS011;10195;50.868;4.382;2023-01-10T05:41:41;22.13;;;3.97;;
20069;SDS011;10195;50.868;4.382;2023-01-10T05:44:07;22.63;;;3.47;;
20069;SDS011;10195;50.868;4.382;2023-01-10T05:46:32;27.90;;;3.80;;
20069;SDS011;10195;50.868;4.382;2023-01-10T05:48:58;28.30;;;3.90;;
20069;SDS011;10195;50.868;4.382;2023-01-10T05:51:24;30.63;;;4.40;;
20069;SDS011;10195;50.868;4.382;2023-01-10T05:53:49;26.03;;;3.73;;
20069;SDS011;10195;50.868;4.382;2023-01-10T05:56:15;30.17;;;4.40;;
20069;SDS011;10195;50.868;4.382;2023-01-10T05:58:41;22.67;;;4.27;;
20069;SDS011;10195;50.868;4.382;2023-01-10T06:01:06;27.13;;;4.23;;
20069;SDS011;10195;50.868;4.382;2023-01-10T06:03:33;34.80;;;4.30;;
20069;SDS011;10195;50.868;4.382;2023-01-10T06:05:59;24.27;;;4.53;;
20069;SDS011;10195;50.868;4.382;2023-01-10T06:08:24;27.67;;;3.90;;
20069;SDS011;10195;50.868;4.382;2023-01-10T06:10:50;30.20;;;4.57;;
20069;SDS011;10195;50.868;4.382;2023-01-10T06:13:16;24.10;;;3.50;;
20069;SDS011;10195;50.868;4.382;2023-01-10T06:15:42;19.77;;;3.17;;
20069;SDS011;10195;50.868;4.382;2023-01-10T06:18:08;30.33;;;3.90;;
20069;SDS011;10195;50.868;4.382;2023-01-10T06:20:33;34.90;;;4.17;;
20069;SDS011;10195;50.868;4.382;2023-01-10T06:22:59;29.60;;;4.27;;
20069;SDS011;10195;50.868;4.382;2023-01-10T06:25:28;28.03;;;4.10;;
20069;SDS011;10195;50.868;4.382;2023-01-10T06:28:00;22.97;;;4.00;;
20069;SDS011;10195;50.868;4.382;2023-01-10T06:30:26;25.13;;;4.10;;
20069;SDS011;10195;50.868;4.382;2023-01-10T06:32:52;23.90;;;4.07;;
20069;SDS011;10195;50.868;4.382;2023-01-10T06:35:18;28.00;;;3.57;;
20069;SDS011;10195;50.868;4.382;2023-01-10T06:37:44;25.40;;;4.00;;
20069;SDS011;10195;50.868;4.382;2023-01-10T06:40:10;23.57;;;3.57;;
20069;SDS011;10195;50.868;4.382;2023-01-10T06:42:36;29.70;;;3.80;;
20069;SDS011;10195;50.868;4.382;2023-01-10T06:45:01;24.10;;;3.67;;
20069;SDS011;10195;50.868;4.382;2023-01-10T06:47:28;37.07;;;5.00;;
20069;SDS011;10195;50.868;4.382;2023-01-10T06:49:54;16.40;;;3.23;;
20069;SDS011;10195;50.868;4.382;2023-01-10T06:52:20;19.83;;;3.47;;
20069;SDS011;10195;50.868;4.382;2023-01-10T06:54:45;20.90;;;4.03;;
20069;SDS011;10195;50.868;4.382;2023-01-10T06:57:11;17.53;;;3.77;;
20069;SDS011;10195;50.868;4.382;2023-01-10T06:59:36;22.53;;;3.73;;
20069;SDS011;10195;50.868;4.382;2023-01-10T07:02:02;29.50;;;4.20;;
20069;SDS011;10195;50.868;4.382;2023-01-10T07:04:28;28.33;;;4.83;;
20069;SDS011;10195;50.868;4.382;2023-01-10T07:06:53;17.60;;;3.37;;
20069;SDS011;10195;50.868;4.382;2023-01-10T07:09:19;32.63;;;4.10;;
20069;SDS011;10195;50.868;4.382;2023-01-10T07:11:45;32.83;;;3.93;;
20069;SDS011;10195;50.868;4.382;2023-01-10T07:14:10;21.80;;;3.73;;
20069;SDS011;10195;50.868;4.382;2023-01-10T07:16:36;19.53;;;3.70;;
20069;SDS011;10195;50.868;4.382;2023-01-10T07:19:01;22.50;;;3.27;;
20069;SDS011;10195;50.868;4.382;2023-01-10T07:21:27;16.80;;;3.03;;
20069;SDS011;10195;50.868;4.382;2023-01-10T07:23:53;22.13;;;3.60;;
20069;SDS011;10195;50.868;4.382;2023-01-10T07:26:19;26.93;;;3.83;;
20069;SDS011;10195;50.868;4.382;2023-01-10T07:28:48;21.57;;;3.90;;
20069;SDS011;10195;50.868;4.382;2023-01-10T07:31:15;24.00;;;3.90;;
20069;SDS011;10195;50.868;4.382;2023-01-10T07:33:42;24.80;;;3.77;;
20069;SDS011;10195;50.868;4.382;2023-01-10T07:36:08;21.77;;;4.43;;
20069;SDS011;10195;50.868;4.382;2023-01-10T07:38:33;20.77;;;3.60;;
20069;SDS011;10195;50.868;4.382;2023-01-10T07:41:01;27.27;;;3.87;;
20069;SDS011;10195;50.868;4.382;2023-01-10T07:43:27;27.77;;;4.07;;
20069;SDS011;10195;50.868;4.382;2023-01-10T07:45:53;19.90;;;3.67;;
20069;SDS011;10195;50.868;4.382;2023-01-10T07:48:21;25.17;;;4.00;;
20069;SDS011;10195;50.868;4.382;2023-01-10T07:50:47;23.67;;;3.97;;
20069;SDS011;10195;50.868;4.382;2023-01-10T07:53:13;23.60;;;3.73;;
20069;SDS011;10195;50.868;4.382;2023-01-10T07:55:38;24.60;;;4.73;;
20069;SDS011;10195;50.868;4.382;2023-01-10T07:58:05;24.70;;;4.20;;
20069;SDS011;10195;50.868;4.382;2023-01-10T08:00:32;20.03;;;4.03;;
20069;SDS011;10195;50.868;4.382;2023-01-10T08:02:58;21.40;;;4.07;;
20069;SDS011;10195;50.868;4.382;2023-01-10T08:05:24;19.10;;;4.40;;
20069;SDS011;10195;50.868;4.382;2023-01-10T08:07:49;20.23;;;4.30;;
20069;SDS011;10195;50.868;4.382;2023-01-10T08:10:16;17.33;;;3.93;;
20069;SDS011;10195;50.868;4.382;2023-01-10T08:12:42;21.00;;;3.83;;
20069;SDS011;10195;50.868;4.382;2023-01-10T08:15:08;20.73;;;4.07;;
20069;SDS011;10195;50.868;4.382;2023-01-10T08:17:34;20.07;;;3.50;;
20069;SDS011;10195;50.868;4.382;2023-01-10T08:20:00;28.87;;;4.90;;
20069;SDS011;10195;50.868;4.382;2023-01-10T08:22:26;22.93;;;3.90;;
20069;SDS011;10195;50.868;4.382;2023-01-10T08:24:52;24.07;;;4.00;;
20069;SDS011;10195;50.868;4.382;2023-01-10T08:27:18;26.00;;;3.77;;
20069;SDS011;10195;50.868;4.382;2023-01-10T08:29:43;19.13;;;3.77;;
20069;SDS011;10195;50.868;4.382;2023-01-10T08:32:09;22.63;;;3.30;;
20069;SDS011;10195;50.868;4.382;2023-01-10T08:34:35;15.20;;;3.40;;
20069;SDS011;10195;50.868;4.382;2023-01-10T08:37:01;18.17;;;3.50;;
20069;SDS011;10195;50.868;4.382;2023-01-10T08:39:27;22.90;;;4.03;;
20069;SDS011;10195;50.868;4.382;2023-01-10T08:41:54;19.43;;;3.57;;
20069;SDS011;10195;50.868;4.382;2023-01-10T08:44:20;25.33;;;4.07;;
20069;SDS011;10195;50.868;4.382;2023-01-10T08:46:46;19.23;;;3.50;;
20069;SDS011;10195;50.868;4.382;2023-01-10T08:49:12;18.13;;;3.40;;
20069;SDS011;10195;50.868;4.382;2023-01-10T08:51:38;19.73;;;3.53;;
20069;SDS011;10195;50.868;4.382;2023-01-10T08:54:04;22.37;;;4.53;;
20069;SDS011;10195;50.868;4.382;2023-01-10T08:56:30;24.27;;;3.90;;
20069;SDS011;10195;50.868;4.382;2023-01-10T08:58:55;25.23;;;3.93;;
20069;SDS011;10195;50.868;4.382;2023-01-10T09:01:21;22.77;;;3.17;;
20069;SDS011;10195;50.868;4.382;2023-01-10T09:03:47;29.30;;;4.13;;
20069;SDS011;10195;50.868;4.382;2023-01-10T09:06:12;19.13;;;4.13;;
20069;SDS011;10195;50.868;4.382;2023-01-10T09:08:38;20.30;;;3.53;;
20069;SDS011;10195;50.868;4.382;2023-01-10T09:11:04;19.17;;;4.00;;
20069;SDS011;10195;50.868;4.382;2023-01-10T09:13:30;19.47;;;3.50;;
20069;SDS011;10195;50.868;4.382;2023-01-10T09:15:56;22.90;;;5.13;;
20069;SDS011;10195;50.868;4.382;2023-01-10T09:18:22;22.93;;;3.70;;
20069;SDS011;10195;50.868;4.382;2023-01-10T09:20:48;19.23;;;4.30;;
20069;SDS011;10195;50.868;4.382;2023-01-10T09:23:15;30.67;;;4.67;;
20069;SDS011;10195;50.868;4.382;2023-01-10T09:25:47;22.47;;;3.93;;
20069;SDS011;10195;50.868;4.382;2023-01-10T09:28:15;16.97;;;3.93;;
20069;SDS011;10195;50.868;4.382;2023-01-10T09:30:42;20.87;;;4.10;;
20069;SDS011;10195;50.868;4.382;2023-01-10T09:33:08;24.07;;;4.23;;
20069;SDS011;10195;50.868;4.382;2023-01-10T09:35:35;20.10;;;4.13;;
20069;SDS011;10195;50.868;4.382;2023-01-10T09:38:02;24.03;;;4.40;;
20069;SDS011;10195;50.868;4.382;2023-01-10T09:43:09;22.23;;;3.87;;
20069;SDS011;10195;50.868;4.382;2023-01-10T09:53:33;16.57;;;3.80;;
20069;SDS011;10195;50.868;4.382;2023-01-10T09:56:04;20.60;;;4.37;;
20069;SDS011;10195;50.868;4.382;2023-01-10T09:58:31;24.97;;;5.07;;
20069;SDS011;10195;50.868;4.382;2023-01-10T10:01:02;28.17;;;4.70;;
20069;SDS011;10195;50.868;4.382;2023-01-10T10:06:02;21.93;;;4.30;;
20069;SDS011;10195;50.868;4.382;2023-01-10T10:08:28;23.53;;;5.07;;
20069;SDS011;10195;50.868;4.382;2023-01-10T10:10:58;28.33;;;4.23;;
20069;SDS011;10195;50.868;4.382;2023-01-10T10:18:41;28.80;;;4.73;;
20069;SDS011;10195;50.868;4.382;2023-01-10T10:21:22;19.80;;;3.67;;
20069;SDS011;10195;50.868;4.382;2023-01-10T10:24:12;23.47;;;4.27;;
20069;SDS011;10195;50.868;4.382;2023-01-10T10:26:52;24.53;;;4.10;;
20069;SDS011;10195;50.868;4.382;2023-01-10T10:29:34;31.07;;;4.40;;
20069;SDS011;10195;50.868;4.382;2023-01-10T10:37:49;17.53;;;3.63;;
20069;SDS011;10195;50.868;4.382;2023-01-10T10:40:19;25.00;;;4.70;;
20069;SDS011;10195;50.868;4.382;2023-01-10T10:42:48;21.80;;;3.87;;
20069;SDS011;10195;50.868;4.382;2023-01-10T10:45:20;25.27;;;4.13;;
20069;SDS011;10195;50.868;4.382;2023-01-10T10:47:58;28.13;;;4.30;;
20069;SDS011;10195;50.868;4.382;2023-01-10T10:50:34;18.70;;;3.60;;
20069;SDS011;10195;50.868;4.382;2023-01-10T10:53:02;30.60;;;4.97;;
20069;SDS011;10195;50.868;4.382;2023-01-10T10:55:32;21.50;;;4.70;;
20069;SDS011;10195;50.868;4.382;2023-01-10T10:58:01;23.67;;;4.60;;
20069;SDS011;10195;50.868;4.382;2023-01-10T11:00:29;20.70;;;4.37;;
20069;SDS011;10195;50.868;4.382;2023-01-10T11:05:36;18.87;;;4.00;;
20069;SDS011;10195;50.868;4.382;2023-01-10T11:08:06;19.07;;;4.20;;
20069;SDS011;10195;50.868;4.382;2023-01-10T11:10:35;20.67;;;3.57;;
20069;SDS011;10195;50.868;4.382;2023-01-10T11:15:56;24.17;;;3.33;;
20069;SDS011;10195;50.868;4.382;2023-01-10T11:18:27;20.53;;;4.20;;
20069;SDS011;10195;50.868;4.382;2023-01-10T11:23:39;19.10;;;3.47;;
20069;SDS011;10195;50.868;4.382;2023-01-10T11:26:26;19.97;;;3.87;;
20069;SDS011;10195;50.868;4.382;2023-01-10T11:29:29;29.80;;;4.13;;
20069;SDS011;10195;50.868;4.382;2023-01-10T11:32:02;21.60;;;4.40;;
20069;SDS011;10195;50.868;4.382;2023-01-10T11:34:34;16.17;;;3.07;;
20069;SDS011;10195;50.868;4.382;2023-01-10T11:37:02;25.47;;;4.23;;
20069;SDS011;10195;50.868;4.382;2023-01-10T11:39:30;19.37;;;3.77;;
20069;SDS011;10195;50.868;4.382;2023-01-10T11:41:57;21.73;;;4.10;;
20069;SDS011;10195;50.868;4.382;2023-01-10T11:44:49;27.00;;;4.53;;
20069;SDS011;10195;50.868;4.382;2023-01-10T11:47:15;26.33;;;4.10;;
20069;SDS011;10195;50.868;4.382;2023-01-10T11:49:45;19.80;;;4.20;;
20069;SDS011;10195;50.868;4.382;2023-01-10T11:54:50;23.77;;;3.53;;
20069;SDS011;10195;50.868;4.382;2023-01-10T11:57:19;16.73;;;4.07;;
20069;SDS011;10195;50.868;4.382;2023-01-10T11:59:55;24.03;;;4.00;;
20069;SDS011;10195;50.868;4.382;2023-01-10T12:02:39;22.70;;;4.70;;
20069;SDS011;10195;50.868;4.382;2023-01-10T12:05:08;28.57;;;4.63;;
20069;SDS011;10195;50.868;4.382;2023-01-10T12:08:10;21.43;;;3.37;;
20069;SDS011;10195;50.868;4.382;2023-01-10T12:10:34;23.17;;;4.53;;
20069;SDS011;10195;50.868;4.382;2023-01-10T12:13:12;23.23;;;4.20;;
20069;SDS011;10195;50.868;4.382;2023-01-10T12:15:39;27.27;;;4.17;;
20069;SDS011;10195;50.868;4.382;2023-01-10T12:18:05;27.47;;;4.23;;
20069;SDS011;10195;50.868;4.382;2023-01-10T12:20:45;23.40;;;3.80;;
20069;SDS011;10195;50.868;4.382;2023-01-10T12:23:15;19.57;;;3.60;;
20069;SDS011;10195;50.868;4.382;2023-01-10T12:25:44;19.80;;;3.60;;
20069;SDS011;10195;50.868;4.382;2023-01-10T12:30:45;19.03;;;3.63;;
20069;SDS011;10195;50.868;4.382;2023-01-10T12:39:21;20.87;;;3.80;;
20069;SDS011;10195;50.868;4.382;2023-01-10T12:41:52;20.83;;;3.63;;
20069;SDS011;10195;50.868;4.382;2023-01-10T12:45:02;18.77;;;4.00;;
20069;SDS011;10195;50.868;4.382;2023-01-10T12:50:24;18.60;;;3.80;;
20069;SDS011;10195;50.868;4.382;2023-01-10T12:53:01;20.20;;;3.70;;
20069;SDS011;10195;50.868;4.382;2023-01-10T12:55:38;17.97;;;3.33;;
20069;SDS011;10195;50.868;4.382;2023-01-10T12:58:06;25.70;;;4.43;;
20069;SDS011;10195;50.868;4.382;2023-01-10T13:00:45;18.83;;;3.63;;
20069;SDS011;10195;50.868;4.382;2023-01-10T13:03:17;15.17;;;3.13;;
20069;SDS011;10195;50.868;4.382;2023-01-10T13:05:45;15.13;;;3.27;;
20069;SDS011;10195;50.868;4.382;2023-01-10T13:08:14;15.13;;;2.97;;
20069;SDS011;10195;50.868;4.382;2023-01-10T13:10:46;16.57;;;3.40;;
20069;SDS011;10195;50.868;4.382;2023-01-10T13:13:28;9.97;;;2.50;;
20069;SDS011;10195;50.868;4.382;2023-01-10T13:18:30;11.47;;;2.50;;
20069;SDS011;10195;50.868;4.382;2023-01-10T13:21:03;17.57;;;3.00;;
20069;SDS011;10195;50.868;4.382;2023-01-10T13:23:33;17.57;;;2.83;;
20069;SDS011;10195;50.868;4.382;2023-01-10T13:26:07;12.67;;;2.60;;
20069;SDS011;10195;50.868;4.382;2023-01-10T13:28:34;16.40;;;3.07;;
20069;SDS011;10195;50.868;4.382;2023-01-10T13:31:07;12.73;;;3.00;;
20069;SDS011;10195;50.868;4.382;2023-01-10T13:36:36;20.47;;;3.07;;
20069;SDS011;10195;50.868;4.382;2023-01-10T13:39:05;14.27;;;2.70;;
20069;SDS011;10195;50.868;4.382;2023-01-10T14:00:45;12.50;;;2.83;;
20069;SDS011;10195;50.868;4.382;2023-01-10T14:03:35;12.70;;;2.20;;
20069;SDS011;10195;50.868;4.382;2023-01-10T14:06:16;12.33;;;2.70;;
20069;SDS011;10195;50.868;4.382;2023-01-10T14:08:50;13.83;;;2.97;;
20069;SDS011;10195;50.868;4.382;2023-01-10T14:11:18;9.13;;;2.50;;
20069;SDS011;10195;50.868;4.382;2023-01-10T14:13:48;11.43;;;2.93;;
20069;SDS011;10195;50.868;4.382;2023-01-10T14:18:57;12.63;;;2.87;;
20069;SDS011;10195;50.868;4.382;2023-01-10T14:21:24;13.83;;;3.53;;
20069;SDS011;10195;50.868;4.382;2023-01-10T14:23:52;8.47;;;2.70;;
20069;SDS011;10195;50.868;4.382;2023-01-10T14:26:33;9.07;;;2.63;;
20069;SDS011;10195;50.868;4.382;2023-01-10T14:29:05;22.40;;;2.60;;
20069;SDS011;10195;50.868;4.382;2023-01-10T14:31:38;9.20;;;2.23;;
20069;SDS011;10195;50.868;4.382;2023-01-10T14:34:12;5.33;;;1.93;;
20069;SDS011;10195;50.868;4.382;2023-01-10T14:37:07;12.30;;;2.83;;
20069;SDS011;10195;50.868;4.382;2023-01-10T14:39:33;10.77;;;2.33;;
20069;SDS011;10195;50.868;4.382;2023-01-10T14:42:11;7.93;;;2.33;;
20069;SDS011;10195;50.868;4.382;2023-01-10T14:44:45;12.67;;;2.83;;
20069;SDS011;10195;50.868;4.382;2023-01-10T14:47:37;7.93;;;2.33;;
20069;SDS011;10195;50.868;4.382;2023-01-10T14:50:03;8.47;;;2.13;;
20069;SDS011;10195;50.868;4.382;2023-01-10T14:52:30;8.83;;;2.00;;
20069;SDS011;10195;50.868;4.382;2023-01-10T14:57:33;10.23;;;1.97;;
20069;SDS011;10195;50.868;4.382;2023-01-10T15:00:07;6.80;;;1.93;;
20069;SDS011;10195;50.868;4.382;2023-01-10T15:02:41;5.87;;;1.40;;
20069;SDS011;10195;50.868;4.382;2023-01-10T15:05:16;6.27;;;1.20;;
20069;SDS011;10195;50.868;4.382;2023-01-10T15:07:44;3.77;;;1.30;;
20069;SDS011;10195;50.868;4.382;2023-01-10T15:13:05;4.47;;;1.67;;
20069;SDS011;10195;50.868;4.382;2023-01-10T15:15:32;2.33;;;1.10;;
20069;SDS011;10195;50.868;4.382;2023-01-10T15:18:01;4.53;;;1.50;;
20069;SDS011;10195;50.868;4.382;2023-01-10T15:20:34;5.90;;;2.33;;
20069;SDS011;10195;50.868;4.382;2023-01-10T15:23:00;2.93;;;1.50;;
20069;SDS011;10195;50.868;4.382;2023-01-10T15:25:29;3.07;;;1.20;;
20069;SDS011;10195;50.868;4.382;2023-01-10T15:28:02;1.63;;;0.93;;
20069;SDS011;10195;50.868;4.382;2023-01-10T15:30:30;3.97;;;1.33;;
20069;SDS011;10195;50.868;4.382;2023-01-10T15:33:03;4.10;;;1.20;;
20069;SDS011;10195;50.868;4.382;2023-01-10T15:35:35;5.43;;;0.83;;
20069;SDS011;10195;50.868;4.382;2023-01-10T15:38:07;1.37;;;1.10;;
20069;SDS011;10195;50.868;4.382;2023-01-10T15:40:40;3.57;;;1.10;;
20069;SDS011;10195;50.868;4.382;2023-01-10T15:45:42;0.93;;;0.80;;
20069;SDS011;10195;50.868;4.382;2023-01-10T15:51:09;1.30;;;0.80;;
20069;SDS011;10195;50.868;4.382;2023-01-10T15:53:51;3.60;;;1.20;;
20069;SDS011;10195;50.868;4.382;2023-01-10T15:56:38;3.83;;;0.90;;
20069;SDS011;10195;50.868;4.382;2023-01-10T16:02:05;6.03;;;1.03;;
20069;SDS011;10195;50.868;4.382;2023-01-10T16:04:40;2.10;;;1.30;;
20069;SDS011;10195;50.868;4.382;2023-01-10T16:10:03;1.37;;;1.00;;
20069;SDS011;10195;50.868;4.382;2023-01-10T16:12:40;8.10;;;1.30;;
20069;SDS011;10195;50.868;4.382;2023-01-10T16:15:25;2.93;;;1.23;;
20069;SDS011;10195;50.868;4.382;2023-01-10T16:17:53;4.33;;;1.23;;
20069;SDS011;10195;50.868;4.382;2023-01-10T16:20:21;4.70;;;1.43;;
20069;SDS011;10195;50.868;4.382;2023-01-10T16:22:50;1.00;;;0.90;;
20069;SDS011;10195;50.868;4.382;2023-01-10T16:25:17;1.20;;;0.90;;
20069;SDS011;10195;50.868;4.382;2023-01-10T16:27:46;2.23;;;1.07;;
20069;SDS011;10195;50.868;4.382;2023-01-10T16:30:23;2.27;;;0.90;;
20069;SDS011;10195;50.868;4.382;2023-01-10T16:32:51;2.10;;;1.03;;
20069;SDS011;10195;50.868;4.382;2023-01-10T16:35:18;1.00;;;0.83;;
20069;SDS011;10195;50.868;4.382;2023-01-10T16:37:47;1.13;;;0.80;;
20069;SDS011;10195;50.868;4.382;2023-01-10T16:42:44;1.90;;;1.17;;
20069;SDS011;10195;50.868;4.382;2023-01-10T16:45:29;2.50;;;1.30;;
20069;SDS011;10195;50.868;4.382;2023-01-10T16:47:54;1.33;;;1.07;;
20069;SDS011;10195;50.868;4.382;2023-01-10T16:50:20;3.67;;;1.30;;
20069;SDS011;10195;50.868;4.382;2023-01-10T16:52:45;2.77;;;1.50;;
20069;SDS011;10195;50.868;4.382;2023-01-10T16:55:15;2.37;;;0.87;;
20069;SDS011;10195;50.868;4.382;2023-01-10T16:57:43;1.30;;;0.90;;
20069;SDS011;10195;50.868;4.382;2023-01-10T17:00:13;3.80;;;2.33;;
20069;SDS011;10195;50.868;4.382;2023-01-10T17:02:39;5.73;;;2.87;;